Startpagina
METAR-TAF:

METAR-TAF

Vliegvelden :

Vliegbasis Volkel

Uden, Nederland

breedte: 51-39N, lengte: 005-42E, hoogte: 22 m

Actueel weer

Dit bericht is 20 minuten geleden gemaakt, om 05:25 UTC
Wind 3 kt uit het noorden, variërend tussen het westnoordwesten en het noorden
Temperatuur -4°C
Vochtigheid 100%
Druk 1027 hPa
Zicht: 1000 m
nevel

METAR: EHVK 070525Z AUTO 35003KT 300V360 1000 BR NCD M04/M04 Q1027 AMB

Tijdstip: 06:45 (05:45 UTC)

Verwachting

Dit bericht is 21 minuten geleden gemaakt, om 05:24 UTC
Verwachting geldig van 07 om 06 UTC tot 07 om 18 UTC
Wind 3 kt uit variabele richting
Zicht: 4000 m
nevel
Tijdelijke
van 07 om 06 UTC tot 07 om 08 UTC
Zicht: 0400 m
mistbanken
Wijzigt naar
van 07 om 07 UTC tot 07 om 09 UTC
Zicht 10 km of meer
Gebroken wolken op 4000 ft
Wijzigt naar
van 07 om 10 UTC tot 07 om 12 UTC
Wind 6 kt uit het noordnoordwesten

TAF: EHVK 070524Z 0706/0718 VRB03KT 4000 BR NSC TEMPO 0706/0708 0400 BCFG BECMG 0707/0709 9999 NSW BKN040 BECMG 0710/0712 34006KT

Waarnemingen en weersverwachtingen van meer dan 4000 vliegvelden (METAR en TAF).

De beschikbare stations zijn de gele en rode punten op de kaart.

Ga met uw muis naar het station om de naam te zien.

Klik dan om waarnemingen en weersverwachtingen te zien.

kaart wijzigen: klik op de groene knoppen met een zwart kruis om in te zoomen, op de groene knop met een streepje om uit te zoomen of op de groene pijlen voor aangrenzende kaarten.


METAR-TAF: